sensor_id;sensor_type;location;lat;lon;timestamp;P1;durP1;ratioP1;P2;durP2;ratioP2
23082;SDS011;11709;52.420;10.538;2023-04-03T00:00:03;40.57;;;38.47;;
23082;SDS011;11709;52.420;10.538;2023-04-03T00:04:06;42.80;;;40.57;;
23082;SDS011;11709;52.420;10.538;2023-04-03T00:08:09;51.63;;;48.97;;
23082;SDS011;11709;52.420;10.538;2023-04-03T00:12:11;58.17;;;55.23;;
23082;SDS011;11709;52.420;10.538;2023-04-03T00:16:14;60.30;;;57.30;;
23082;SDS011;11709;52.420;10.538;2023-04-03T00:20:16;56.57;;;53.60;;
23082;SDS011;11709;52.420;10.538;2023-04-03T00:24:19;59.00;;;55.93;;
23082;SDS011;11709;52.420;10.538;2023-04-03T00:28:22;66.70;;;63.30;;
23082;SDS011;11709;52.420;10.538;2023-04-03T00:32:24;60.73;;;57.57;;
23082;SDS011;11709;52.420;10.538;2023-04-03T00:36:27;58.90;;;56.13;;
23082;SDS011;11709;52.420;10.538;2023-04-03T00:40:32;64.10;;;60.80;;
23082;SDS011;11709;52.420;10.538;2023-04-03T00:52:47;66.60;;;63.23;;
23082;SDS011;11709;52.420;10.538;2023-04-03T00:56:51;95.97;;;88.47;;
23082;SDS011;11709;52.420;10.538;2023-04-03T01:00:55;218.57;;;199.23;;
23082;SDS011;11709;52.420;10.538;2023-04-03T01:05:00;212.90;;;193.90;;
23082;SDS011;11709;52.420;10.538;2023-04-03T01:09:03;182.50;;;167.70;;
23082;SDS011;11709;52.420;10.538;2023-04-03T01:13:24;92.97;;;85.90;;
23082;SDS011;11709;52.420;10.538;2023-04-03T01:21:47;75.27;;;71.60;;
23082;SDS011;11709;52.420;10.538;2023-04-03T01:25:53;80.62;;;75.62;;
23082;SDS011;11709;52.420;10.538;2023-04-03T01:29:56;37.48;;;35.43;;
23082;SDS011;11709;52.420;10.538;2023-04-03T01:34:00;45.73;;;43.25;;
23082;SDS011;11709;52.420;10.538;2023-04-03T01:38:03;33.67;;;31.77;;
23082;SDS011;11709;52.420;10.538;2023-04-03T01:42:05;31.93;;;30.23;;
23082;SDS011;11709;52.420;10.538;2023-04-03T01:46:08;69.23;;;65.40;;
23082;SDS011;11709;52.420;10.538;2023-04-03T01:50:10;22.90;;;21.07;;
23082;SDS011;11709;52.420;10.538;2023-04-03T01:54:13;44.40;;;42.23;;
23082;SDS011;11709;52.420;10.538;2023-04-03T01:58:15;59.70;;;56.73;;
23082;SDS011;11709;52.420;10.538;2023-04-03T02:02:18;78.73;;;72.73;;
23082;SDS011;11709;52.420;10.538;2023-04-03T02:06:21;69.50;;;64.67;;
23082;SDS011;11709;52.420;10.538;2023-04-03T02:14:25;281.52;;;253.55;;
23082;SDS011;11709;52.420;10.538;2023-04-03T02:22:30;54.00;;;51.30;;
23082;SDS011;11709;52.420;10.538;2023-04-03T02:34:36;29.83;;;28.27;;
23082;SDS011;11709;52.420;10.538;2023-04-03T02:42:41;101.65;;;28.20;;
23082;SDS011;11709;52.420;10.538;2023-04-03T02:50:45;27.13;;;25.63;;
23082;SDS011;11709;52.420;10.538;2023-04-03T02:54:47;87.82;;;25.20;;
23082;SDS011;11709;52.420;10.538;2023-04-03T03:06:54;29.85;;;28.27;;
23082;SDS011;11709;52.420;10.538;2023-04-03T03:14:58;34.50;;;15.75;;
23082;SDS011;11709;52.420;10.538;2023-04-03T03:23:02;17.55;;;16.45;;
23082;SDS011;11709;52.420;10.538;2023-04-03T03:35:09;15.05;;;14.10;;
23082;SDS011;11709;52.420;10.538;2023-04-03T03:39:12;116.05;;;33.00;;
23082;SDS011;11709;52.420;10.538;2023-04-03T03:43:15;113.80;;;31.37;;
23082;SDS011;11709;52.420;10.538;2023-04-03T03:47:18;118.42;;;33.78;;
23082;SDS011;11709;52.420;10.538;2023-04-03T03:51:20;119.28;;;33.42;;
23082;SDS011;11709;52.420;10.538;2023-04-03T03:55:23;120.08;;;34.40;;
23082;SDS011;11709;52.420;10.538;2023-04-03T03:59:26;117.47;;;33.00;;
23082;SDS011;11709;52.420;10.538;2023-04-03T04:03:28;120.02;;;34.55;;
23082;SDS011;11709;52.420;10.538;2023-04-03T04:07:31;122.33;;;35.28;;
23082;SDS011;11709;52.420;10.538;2023-04-03T04:11:33;118.93;;;35.20;;
23082;SDS011;11709;52.420;10.538;2023-04-03T04:15:36;116.60;;;33.75;;
23082;SDS011;11709;52.420;10.538;2023-04-03T04:19:38;114.05;;;32.60;;
23082;SDS011;11709;52.420;10.538;2023-04-03T04:23:41;116.08;;;34.92;;
23082;SDS011;11709;52.420;10.538;2023-04-03T04:27:43;112.50;;;33.23;;
23082;SDS011;11709;52.420;10.538;2023-04-03T04:31:46;108.80;;;33.35;;
23082;SDS011;11709;52.420;10.538;2023-04-03T04:35:48;111.30;;;37.10;;
23082;SDS011;11709;52.420;10.538;2023-04-03T04:39:52;111.55;;;35.73;;
23082;SDS011;11709;52.420;10.538;2023-04-03T04:43:54;111.65;;;37.38;;
23082;SDS011;11709;52.420;10.538;2023-04-03T04:47:57;116.17;;;39.25;;
23082;SDS011;11709;52.420;10.538;2023-04-03T04:52:00;114.05;;;38.40;;
23082;SDS011;11709;52.420;10.538;2023-04-03T04:56:02;106.15;;;40.70;;
23082;SDS011;11709;52.420;10.538;2023-04-03T05:00:05;105.55;;;36.13;;
23082;SDS011;11709;52.420;10.538;2023-04-03T05:04:09;99.35;;;34.15;;
23082;SDS011;11709;52.420;10.538;2023-04-03T05:12:15;18.42;;;17.15;;
23082;SDS011;11709;52.420;10.538;2023-04-03T05:16:18;117.30;;;41.53;;
23082;SDS011;11709;52.420;10.538;2023-04-03T05:20:20;114.57;;;35.88;;
23082;SDS011;11709;52.420;10.538;2023-04-03T05:24:23;109.80;;;33.05;;
23082;SDS011;11709;52.420;10.538;2023-04-03T05:28:26;117.65;;;38.90;;
23082;SDS011;11709;52.420;10.538;2023-04-03T05:32:29;121.92;;;41.13;;
23082;SDS011;11709;52.420;10.538;2023-04-03T05:36:31;122.05;;;40.05;;
23082;SDS011;11709;52.420;10.538;2023-04-03T05:40:34;121.28;;;39.55;;
23082;SDS011;11709;52.420;10.538;2023-04-03T05:44:37;113.65;;;36.95;;
23082;SDS011;11709;52.420;10.538;2023-04-03T05:48:39;118.25;;;38.02;;
23082;SDS011;11709;52.420;10.538;2023-04-03T05:52:43;114.10;;;36.20;;
23082;SDS011;11709;52.420;10.538;2023-04-03T05:56:48;110.85;;;38.02;;
23082;SDS011;11709;52.420;10.538;2023-04-03T06:00:51;117.70;;;34.98;;
23082;SDS011;11709;52.420;10.538;2023-04-03T06:04:54;112.00;;;33.78;;
23082;SDS011;11709;52.420;10.538;2023-04-03T06:08:56;50.55;;;19.98;;
23082;SDS011;11709;52.420;10.538;2023-04-03T06:12:59;16.97;;;15.10;;
23082;SDS011;11709;52.420;10.538;2023-04-03T06:17:01;15.28;;;13.75;;
23082;SDS011;11709;52.420;10.538;2023-04-03T06:21:05;16.80;;;15.80;;
23082;SDS011;11709;52.420;10.538;2023-04-03T06:25:08;15.67;;;14.67;;
23082;SDS011;11709;52.420;10.538;2023-04-03T06:29:11;16.37;;;15.37;;
23082;SDS011;11709;52.420;10.538;2023-04-03T06:33:14;19.97;;;18.73;;
23082;SDS011;11709;52.420;10.538;2023-04-03T06:37:17;17.57;;;16.40;;
23082;SDS011;11709;52.420;10.538;2023-04-03T06:41:22;15.15;;;14.10;;
23082;SDS011;11709;52.420;10.538;2023-04-03T06:45:24;122.60;;;33.88;;
23082;SDS011;11709;52.420;10.538;2023-04-03T06:49:27;127.05;;;34.78;;
23082;SDS011;11709;52.420;10.538;2023-04-03T06:53:30;119.15;;;32.42;;
23082;SDS011;11709;52.420;10.538;2023-04-03T06:57:32;122.07;;;33.88;;
23082;SDS011;11709;52.420;10.538;2023-04-03T07:01:35;118.22;;;31.90;;
23082;SDS011;11709;52.420;10.538;2023-04-03T07:05:37;120.67;;;33.98;;
23082;SDS011;11709;52.420;10.538;2023-04-03T07:09:40;76.20;;;24.27;;
23082;SDS011;11709;52.420;10.538;2023-04-03T07:13:43;49.75;;;17.87;;
23082;SDS011;11709;52.420;10.538;2023-04-03T07:17:46;41.95;;;15.68;;
23082;SDS011;11709;52.420;10.538;2023-04-03T07:21:48;30.75;;;16.35;;
23082;SDS011;11709;52.420;10.538;2023-04-03T07:25:51;25.08;;;14.53;;
23082;SDS011;11709;52.420;10.538;2023-04-03T07:29:53;37.17;;;16.87;;
23082;SDS011;11709;52.420;10.538;2023-04-03T07:33:56;14.33;;;12.78;;
23082;SDS011;11709;52.420;10.538;2023-04-03T07:37:59;16.10;;;14.13;;
23082;SDS011;11709;52.420;10.538;2023-04-03T07:42:02;14.80;;;13.00;;
23082;SDS011;11709;52.420;10.538;2023-04-03T07:46:05;19.32;;;17.87;;
23082;SDS011;11709;52.420;10.538;2023-04-03T07:50:07;14.70;;;13.70;;
23082;SDS011;11709;52.420;10.538;2023-04-03T07:54:10;19.05;;;17.75;;
23082;SDS011;11709;52.420;10.538;2023-04-03T07:58:14;18.35;;;17.25;;
23082;SDS011;11709;52.420;10.538;2023-04-03T08:02:18;16.05;;;14.95;;
23082;SDS011;11709;52.420;10.538;2023-04-03T08:06:21;17.10;;;16.10;;
23082;SDS011;11709;52.420;10.538;2023-04-03T08:10:23;18.60;;;17.50;;
23082;SDS011;11709;52.420;10.538;2023-04-03T08:14:26;17.62;;;16.52;;
23082;SDS011;11709;52.420;10.538;2023-04-03T08:18:28;17.52;;;16.40;;
23082;SDS011;11709;52.420;10.538;2023-04-03T08:22:32;19.42;;;18.12;;
23082;SDS011;11709;52.420;10.538;2023-04-03T08:26:35;19.07;;;17.80;;
23082;SDS011;11709;52.420;10.538;2023-04-03T08:30:41;20.45;;;19.07;;
23082;SDS011;11709;52.420;10.538;2023-04-03T08:34:44;17.37;;;16.27;;
23082;SDS011;11709;52.420;10.538;2023-04-03T08:38:47;21.77;;;20.37;;
23082;SDS011;11709;52.420;10.538;2023-04-03T08:51:15;19.77;;;18.55;;
23082;SDS011;11709;52.420;10.538;2023-04-03T08:55:24;18.98;;;17.87;;
23082;SDS011;11709;52.420;10.538;2023-04-03T08:59:35;19.90;;;18.70;;
23082;SDS011;11709;52.420;10.538;2023-04-03T09:03:39;19.77;;;18.57;;
23082;SDS011;11709;52.420;10.538;2023-04-03T09:07:44;18.82;;;17.73;;
23082;SDS011;11709;52.420;10.538;2023-04-03T09:11:55;18.70;;;17.50;;
23082;SDS011;11709;52.420;10.538;2023-04-03T09:20:42;23.05;;;21.65;;
23082;SDS011;11709;52.420;10.538;2023-04-03T09:29:22;24.20;;;22.90;;
23082;SDS011;11709;52.420;10.538;2023-04-03T09:33:26;25.77;;;24.27;;
23082;SDS011;11709;52.420;10.538;2023-04-03T09:37:35;28.80;;;27.22;;
23082;SDS011;11709;52.420;10.538;2023-04-03T09:50:24;219.37;;;139.95;;
23082;SDS011;11709;52.420;10.538;2023-04-03T09:54:36;187.88;;;85.53;;
23082;SDS011;11709;52.420;10.538;2023-04-03T09:58:41;21.97;;;20.70;;
23082;SDS011;11709;52.420;10.538;2023-04-03T10:02:48;27.85;;;26.30;;
23082;SDS011;11709;52.420;10.538;2023-04-03T10:06:55;33.05;;;31.23;;
23082;SDS011;11709;52.420;10.538;2023-04-03T10:11:07;30.85;;;29.18;;
23082;SDS011;11709;52.420;10.538;2023-04-03T10:15:16;32.75;;;31.07;;
23082;SDS011;11709;52.420;10.538;2023-04-03T10:19:31;31.12;;;29.60;;
23082;SDS011;11709;52.420;10.538;2023-04-03T10:23:41;34.33;;;32.50;;
23082;SDS011;11709;52.420;10.538;2023-04-03T10:28:10;31.85;;;30.30;;
23082;SDS011;11709;52.420;10.538;2023-04-03T10:32:15;38.42;;;36.42;;
23082;SDS011;11709;52.420;10.538;2023-04-03T10:36:35;38.95;;;36.77;;
23082;SDS011;11709;52.420;10.538;2023-04-03T10:40:52;42.48;;;40.30;;
23082;SDS011;11709;52.420;10.538;2023-04-03T10:45:19;40.00;;;38.08;;
23082;SDS011;11709;52.420;10.538;2023-04-03T10:49:32;42.17;;;40.10;;
23082;SDS011;11709;52.420;10.538;2023-04-03T10:57:59;42.48;;;40.35;;
23082;SDS011;11709;52.420;10.538;2023-04-03T11:02:17;42.45;;;40.35;;
23082;SDS011;11709;52.420;10.538;2023-04-03T11:06:45;40.38;;;38.30;;
23082;SDS011;11709;52.420;10.538;2023-04-03T11:10:43;42.98;;;40.75;;
23082;SDS011;11709;52.420;10.538;2023-04-03T11:14:48;47.55;;;45.08;;
23082;SDS011;11709;52.420;10.538;2023-04-03T11:23:21;49.50;;;47.00;;
23082;SDS011;11709;52.420;10.538;2023-04-03T11:27:27;51.75;;;49.27;;
23082;SDS011;11709;52.420;10.538;2023-04-03T11:35:44;69.85;;;66.42;;
23082;SDS011;11709;52.420;10.538;2023-04-03T11:40:00;55.48;;;52.75;;
23082;SDS011;11709;52.420;10.538;2023-04-03T11:44:04;46.63;;;44.30;;
23082;SDS011;11709;52.420;10.538;2023-04-03T11:48:41;41.58;;;39.53;;
23082;SDS011;11709;52.420;10.538;2023-04-03T11:56:49;27.48;;;25.88;;
23082;SDS011;11709;52.420;10.538;2023-04-03T12:00:55;19.52;;;17.57;;
23082;SDS011;11709;52.420;10.538;2023-04-03T12:09:30;29.60;;;28.20;;
23082;SDS011;11709;52.420;10.538;2023-04-03T12:13:40;41.40;;;39.42;;
23082;SDS011;11709;52.420;10.538;2023-04-03T12:17:56;49.15;;;46.63;;
23082;SDS011;11709;52.420;10.538;2023-04-03T12:26:20;57.40;;;54.60;;
23082;SDS011;11709;52.420;10.538;2023-04-03T12:30:25;213.52;;;166.12;;
23082;SDS011;11709;52.420;10.538;2023-04-03T12:39:04;386.70;;;348.07;;
23082;SDS011;11709;52.420;10.538;2023-04-03T12:47:33;351.07;;;315.33;;
23082;SDS011;11709;52.420;10.538;2023-04-03T12:51:40;312.20;;;277.77;;
23082;SDS011;11709;52.420;10.538;2023-04-03T12:55:45;226.60;;;186.20;;
23082;SDS011;11709;52.420;10.538;2023-04-03T12:59:48;214.43;;;189.40;;
23082;SDS011;11709;52.420;10.538;2023-04-03T13:03:57;72.90;;;69.32;;
23082;SDS011;11709;52.420;10.538;2023-04-03T13:08:02;0.00;;;0.00;;
23082;SDS011;11709;52.420;10.538;2023-04-03T13:12:12;0.00;;;0.00;;
23082;SDS011;11709;52.420;10.538;2023-04-03T13:16:16;6.22;;;2.22;;
23082;SDS011;11709;52.420;10.538;2023-04-03T13:20:23;0.00;;;0.00;;
23082;SDS011;11709;52.420;10.538;2023-04-03T13:24:25;0.00;;;0.00;;
23082;SDS011;11709;52.420;10.538;2023-04-03T13:28:27;0.00;;;0.00;;
23082;SDS011;11709;52.420;10.538;2023-04-03T13:32:31;0.00;;;0.00;;
23082;SDS011;11709;52.420;10.538;2023-04-03T13:36:38;0.00;;;0.00;;
23082;SDS011;11709;52.420;10.538;2023-04-03T13:40:51;0.00;;;0.00;;
23082;SDS011;11709;52.420;10.538;2023-04-03T13:53:59;0.00;;;0.00;;
23082;SDS011;11709;52.420;10.538;2023-04-03T13:57:49;0.00;;;0.00;;
23082;SDS011;11709;52.420;10.538;2023-04-03T14:06:08;0.00;;;0.00;;
23082;SDS011;11709;52.420;10.538;2023-04-03T14:10:16;0.00;;;0.00;;
23082;SDS011;11709;52.420;10.538;2023-04-03T14:14:21;0.00;;;0.00;;
23082;SDS011;11709;52.420;10.538;2023-04-03T14:18:23;0.00;;;0.00;;
23082;SDS011;11709;52.420;10.538;2023-04-03T14:22:32;0.00;;;0.00;;
23082;SDS011;11709;52.420;10.538;2023-04-03T14:26:36;0.00;;;0.00;;
23082;SDS011;11709;52.420;10.538;2023-04-03T14:30:37;0.00;;;0.00;;
23082;SDS011;11709;52.420;10.538;2023-04-03T14:34:41;0.00;;;0.00;;
23082;SDS011;11709;52.420;10.538;2023-04-03T14:38:44;0.00;;;0.00;;
23082;SDS011;11709;52.420;10.538;2023-04-03T14:42:46;0.00;;;0.00;;
23082;SDS011;11709;52.420;10.538;2023-04-03T14:46:50;0.00;;;0.00;;
23082;SDS011;11709;52.420;10.538;2023-04-03T14:50:52;0.00;;;0.00;;
23082;SDS011;11709;52.420;10.538;2023-04-03T14:54:56;0.00;;;0.00;;
23082;SDS011;11709;52.420;10.538;2023-04-03T14:58:59;0.00;;;0.00;;
23082;SDS011;11709;52.420;10.538;2023-04-03T15:03:02;0.00;;;0.00;;
23082;SDS011;11709;52.420;10.538;2023-04-03T15:07:04;0.00;;;0.00;;
23082;SDS011;11709;52.420;10.538;2023-04-03T15:11:06;0.00;;;0.00;;
23082;SDS011;11709;52.420;10.538;2023-04-03T15:15:09;0.00;;;0.00;;
23082;SDS011;11709;52.420;10.538;2023-04-03T15:19:12;0.00;;;0.00;;
23082;SDS011;11709;52.420;10.538;2023-04-03T15:23:15;0.00;;;0.00;;
23082;SDS011;11709;52.420;10.538;2023-04-03T15:27:17;0.00;;;0.00;;
23082;SDS011;11709;52.420;10.538;2023-04-03T15:31:20;0.00;;;0.00;;
23082;SDS011;11709;52.420;10.538;2023-04-03T15:35:22;0.00;;;0.00;;
23082;SDS011;11709;52.420;10.538;2023-04-03T15:39:24;0.00;;;0.00;;
23082;SDS011;11709;52.420;10.538;2023-04-03T15:43:27;0.00;;;0.00;;
23082;SDS011;11709;52.420;10.538;2023-04-03T15:47:29;0.00;;;0.00;;
23082;SDS011;11709;52.420;10.538;2023-04-03T15:51:32;0.00;;;0.00;;
23082;SDS011;11709;52.420;10.538;2023-04-03T15:55:35;0.00;;;0.00;;
23082;SDS011;11709;52.420;10.538;2023-04-03T15:59:38;0.00;;;0.00;;
23082;SDS011;11709;52.420;10.538;2023-04-03T16:03:40;0.00;;;0.00;;
23082;SDS011;11709;52.420;10.538;2023-04-03T16:07:47;0.00;;;0.00;;
23082;SDS011;11709;52.420;10.538;2023-04-03T16:11:49;0.00;;;0.00;;
23082;SDS011;11709;52.420;10.538;2023-04-03T16:15:51;0.00;;;0.00;;
23082;SDS011;11709;52.420;10.538;2023-04-03T16:19:54;0.00;;;0.00;;
23082;SDS011;11709;52.420;10.538;2023-04-03T16:23:58;0.00;;;0.00;;
23082;SDS011;11709;52.420;10.538;2023-04-03T16:28:00;0.00;;;0.00;;
23082;SDS011;11709;52.420;10.538;2023-04-03T16:32:02;0.00;;;0.00;;
23082;SDS011;11709;52.420;10.538;2023-04-03T16:36:06;0.00;;;0.00;;
23082;SDS011;11709;52.420;10.538;2023-04-03T16:40:08;0.00;;;0.00;;
23082;SDS011;11709;52.420;10.538;2023-04-03T16:44:13;0.00;;;0.00;;
23082;SDS011;11709;52.420;10.538;2023-04-03T16:48:14;0.00;;;0.00;;
23082;SDS011;11709;52.420;10.538;2023-04-03T16:52:17;0.00;;;0.00;;
23082;SDS011;11709;52.420;10.538;2023-04-03T16:56:20;0.00;;;0.00;;
23082;SDS011;11709;52.420;10.538;2023-04-03T17:00:23;0.00;;;0.00;;
23082;SDS011;11709;52.420;10.538;2023-04-03T17:04:25;0.00;;;0.00;;
23082;SDS011;11709;52.420;10.538;2023-04-03T17:08:28;0.00;;;0.00;;
23082;SDS011;11709;52.420;10.538;2023-04-03T17:12:30;0.00;;;0.00;;
23082;SDS011;11709;52.420;10.538;2023-04-03T17:16:33;0.00;;;0.00;;
23082;SDS011;11709;52.420;10.538;2023-04-03T17:20:36;0.00;;;0.00;;
23082;SDS011;11709;52.420;10.538;2023-04-03T17:24:39;0.00;;;0.00;;
23082;SDS011;11709;52.420;10.538;2023-04-03T17:28:41;0.00;;;0.00;;
23082;SDS011;11709;52.420;10.538;2023-04-03T17:32:43;0.00;;;0.00;;
23082;SDS011;11709;52.420;10.538;2023-04-03T17:36:45;0.00;;;0.00;;
23082;SDS011;11709;52.420;10.538;2023-04-03T17:40:48;0.00;;;0.00;;
23082;SDS011;11709;52.420;10.538;2023-04-03T17:44:51;0.00;;;0.00;;
23082;SDS011;11709;52.420;10.538;2023-04-03T17:48:53;0.00;;;0.00;;
23082;SDS011;11709;52.420;10.538;2023-04-03T17:52:55;0.00;;;0.00;;
23082;SDS011;11709;52.420;10.538;2023-04-03T17:56:58;0.00;;;0.00;;
23082;SDS011;11709;52.420;10.538;2023-04-03T18:01:10;0.00;;;0.00;;
23082;SDS011;11709;52.420;10.538;2023-04-03T18:05:13;0.00;;;0.00;;
23082;SDS011;11709;52.420;10.538;2023-04-03T18:09:17;0.00;;;0.00;;
23082;SDS011;11709;52.420;10.538;2023-04-03T18:13:19;0.00;;;0.00;;
23082;SDS011;11709;52.420;10.538;2023-04-03T18:17:21;0.00;;;0.00;;
23082;SDS011;11709;52.420;10.538;2023-04-03T18:21:24;0.00;;;0.00;;
23082;SDS011;11709;52.420;10.538;2023-04-03T18:25:26;0.00;;;0.00;;
23082;SDS011;11709;52.420;10.538;2023-04-03T18:29:28;0.00;;;0.00;;
23082;SDS011;11709;52.420;10.538;2023-04-03T18:33:32;0.00;;;0.00;;
23082;SDS011;11709;52.420;10.538;2023-04-03T18:37:35;0.00;;;0.00;;
23082;SDS011;11709;52.420;10.538;2023-04-03T18:41:38;0.00;;;0.00;;
23082;SDS011;11709;52.420;10.538;2023-04-03T18:45:40;0.00;;;0.00;;
23082;SDS011;11709;52.420;10.538;2023-04-03T18:49:43;0.00;;;0.00;;
23082;SDS011;11709;52.420;10.538;2023-04-03T18:53:45;0.00;;;0.00;;
23082;SDS011;11709;52.420;10.538;2023-04-03T18:57:47;0.00;;;0.00;;
23082;SDS011;11709;52.420;10.538;2023-04-03T19:01:50;0.00;;;0.00;;
23082;SDS011;11709;52.420;10.538;2023-04-03T19:05:52;0.00;;;0.00;;
23082;SDS011;11709;52.420;10.538;2023-04-03T19:09:55;0.00;;;0.00;;
23082;SDS011;11709;52.420;10.538;2023-04-03T19:13:57;0.00;;;0.00;;
23082;SDS011;11709;52.420;10.538;2023-04-03T19:18:00;0.00;;;0.00;;
23082;SDS011;11709;52.420;10.538;2023-04-03T19:22:03;0.00;;;0.00;;
23082;SDS011;11709;52.420;10.538;2023-04-03T19:26:07;0.00;;;0.00;;
23082;SDS011;11709;52.420;10.538;2023-04-03T19:30:10;0.00;;;0.00;;
23082;SDS011;11709;52.420;10.538;2023-04-03T19:34:13;0.00;;;0.00;;
23082;SDS011;11709;52.420;10.538;2023-04-03T19:38:16;0.00;;;0.00;;
23082;SDS011;11709;52.420;10.538;2023-04-03T19:42:18;0.00;;;0.00;;
23082;SDS011;11709;52.420;10.538;2023-04-03T19:46:25;0.00;;;0.00;;
23082;SDS011;11709;52.420;10.538;2023-04-03T19:50:28;0.00;;;0.00;;
23082;SDS011;11709;52.420;10.538;2023-04-03T19:54:30;0.00;;;0.00;;
23082;SDS011;11709;52.420;10.538;2023-04-03T19:58:32;0.00;;;0.00;;
23082;SDS011;11709;52.420;10.538;2023-04-03T20:02:35;0.00;;;0.00;;
23082;SDS011;11709;52.420;10.538;2023-04-03T20:06:37;0.00;;;0.00;;
23082;SDS011;11709;52.420;10.538;2023-04-03T20:10:39;0.00;;;0.00;;
23082;SDS011;11709;52.420;10.538;2023-04-03T20:14:41;0.00;;;0.00;;
23082;SDS011;11709;52.420;10.538;2023-04-03T20:18:45;0.00;;;0.00;;
23082;SDS011;11709;52.420;10.538;2023-04-03T20:22:48;0.00;;;0.00;;
23082;SDS011;11709;52.420;10.538;2023-04-03T20:26:51;0.00;;;0.00;;
23082;SDS011;11709;52.420;10.538;2023-04-03T20:30:54;0.00;;;0.00;;
23082;SDS011;11709;52.420;10.538;2023-04-03T20:34:56;0.00;;;0.00;;
23082;SDS011;11709;52.420;10.538;2023-04-03T20:38:59;0.00;;;0.00;;
23082;SDS011;11709;52.420;10.538;2023-04-03T20:43:02;0.00;;;0.00;;
23082;SDS011;11709;52.420;10.538;2023-04-03T20:47:05;0.00;;;0.00;;
23082;SDS011;11709;52.420;10.538;2023-04-03T20:51:10;0.00;;;0.00;;
23082;SDS011;11709;52.420;10.538;2023-04-03T20:55:15;0.00;;;0.00;;
23082;SDS011;11709;52.420;10.538;2023-04-03T20:59:18;0.00;;;0.00;;
23082;SDS011;11709;52.420;10.538;2023-04-03T21:03:24;0.00;;;0.00;;
23082;SDS011;11709;52.420;10.538;2023-04-03T21:20:30;0.00;;;0.00;;
23082;SDS011;11709;52.420;10.538;2023-04-03T21:24:33;0.00;;;0.00;;
23082;SDS011;11709;52.420;10.538;2023-04-03T21:28:37;0.00;;;0.00;;
23082;SDS011;11709;52.420;10.538;2023-04-03T21:32:39;0.00;;;0.00;;
23082;SDS011;11709;52.420;10.538;2023-04-03T21:36:41;0.00;;;0.00;;
23082;SDS011;11709;52.420;10.538;2023-04-03T21:40:44;0.00;;;0.00;;
23082;SDS011;11709;52.420;10.538;2023-04-03T21:44:47;0.00;;;0.00;;
23082;SDS011;11709;52.420;10.538;2023-04-03T21:48:49;0.00;;;0.00;;
23082;SDS011;11709;52.420;10.538;2023-04-03T21:52:52;0.00;;;0.00;;
23082;SDS011;11709;52.420;10.538;2023-04-03T21:56:54;0.00;;;0.00;;
23082;SDS011;11709;52.420;10.538;2023-04-03T22:00:57;0.00;;;0.00;;
23082;SDS011;11709;52.420;10.538;2023-04-03T22:05:11;0.00;;;0.00;;
23082;SDS011;11709;52.420;10.538;2023-04-03T22:09:13;0.00;;;0.00;;
23082;SDS011;11709;52.420;10.538;2023-04-03T22:13:15;0.00;;;0.00;;
23082;SDS011;11709;52.420;10.538;2023-04-03T22:17:17;0.00;;;0.00;;
23082;SDS011;11709;52.420;10.538;2023-04-03T22:21:20;0.00;;;0.00;;
23082;SDS011;11709;52.420;10.538;2023-04-03T22:25:22;0.00;;;0.00;;
23082;SDS011;11709;52.420;10.538;2023-04-03T22:29:24;0.00;;;0.00;;
23082;SDS011;11709;52.420;10.538;2023-04-03T22:33:27;0.00;;;0.00;;
23082;SDS011;11709;52.420;10.538;2023-04-03T22:37:29;0.00;;;0.00;;
23082;SDS011;11709;52.420;10.538;2023-04-03T22:41:32;0.00;;;0.00;;
23082;SDS011;11709;52.420;10.538;2023-04-03T22:45:34;0.00;;;0.00;;
23082;SDS011;11709;52.420;10.538;2023-04-03T22:49:36;0.00;;;0.00;;
23082;SDS011;11709;52.420;10.538;2023-04-03T22:53:39;0.00;;;0.00;;
23082;SDS011;11709;52.420;10.538;2023-04-03T22:57:44;0.00;;;0.00;;
23082;SDS011;11709;52.420;10.538;2023-04-03T23:01:47;0.00;;;0.00;;
23082;SDS011;11709;52.420;10.538;2023-04-03T23:05:50;0.00;;;0.00;;
23082;SDS011;11709;52.420;10.538;2023-04-03T23:09:54;0.00;;;0.00;;
23082;SDS011;11709;52.420;10.538;2023-04-03T23:13:56;0.00;;;0.00;;
23082;SDS011;11709;52.420;10.538;2023-04-03T23:17:59;0.00;;;0.00;;
23082;SDS011;11709;52.420;10.538;2023-04-03T23:22:02;0.00;;;0.00;;
23082;SDS011;11709;52.420;10.538;2023-04-03T23:26:04;0.00;;;0.00;;
23082;SDS011;11709;52.420;10.538;2023-04-03T23:30:07;0.00;;;0.00;;
23082;SDS011;11709;52.420;10.538;2023-04-03T23:34:10;0.00;;;0.00;;
23082;SDS011;11709;52.420;10.538;2023-04-03T23:38:12;0.00;;;0.00;;
23082;SDS011;11709;52.420;10.538;2023-04-03T23:42:14;0.00;;;0.00;;
23082;SDS011;11709;52.420;10.538;2023-04-03T23:46:17;0.00;;;0.00;;
23082;SDS011;11709;52.420;10.538;2023-04-03T23:50:20;0.00;;;0.00;;
23082;SDS011;11709;52.420;10.538;2023-04-03T23:54:22;0.00;;;0.00;;
23082;SDS011;11709;52.420;10.538;2023-04-03T23:58:24;0.00;;;0.00;;
